sensor_id;sensor_type;location;lat;lon;timestamp;temperature;humidity
736;DHT22;352;48.626;9.238;2023-06-14T00:00:22;16.80;64.70
736;DHT22;352;48.626;9.238;2023-06-14T00:02:50;16.80;64.60
736;DHT22;352;48.626;9.238;2023-06-14T00:05:21;16.80;64.80
736;DHT22;352;48.626;9.238;2023-06-14T00:07:48;16.70;65.40
736;DHT22;352;48.626;9.238;2023-06-14T00:10:19;16.70;65.90
736;DHT22;352;48.626;9.238;2023-06-14T00:12:46;16.60;65.70
736;DHT22;352;48.626;9.238;2023-06-14T00:15:13;16.70;65.60
736;DHT22;352;48.626;9.238;2023-06-14T00:17:39;16.70;66.20
736;DHT22;352;48.626;9.238;2023-06-14T00:20:09;16.70;66.10
736;DHT22;352;48.626;9.238;2023-06-14T00:22:36;16.70;66.00
736;DHT22;352;48.626;9.238;2023-06-14T00:25:04;16.60;65.80
736;DHT22;352;48.626;9.238;2023-06-14T00:27:31;16.60;66.00
736;DHT22;352;48.626;9.238;2023-06-14T00:29:58;16.50;65.90
736;DHT22;352;48.626;9.238;2023-06-14T00:32:25;16.50;66.00
736;DHT22;352;48.626;9.238;2023-06-14T00:34:53;16.50;66.10
736;DHT22;352;48.626;9.238;2023-06-14T00:37:22;16.40;65.50
736;DHT22;352;48.626;9.238;2023-06-14T00:39:48;16.40;66.70
736;DHT22;352;48.626;9.238;2023-06-14T00:42:23;16.40;66.30
736;DHT22;352;48.626;9.238;2023-06-14T00:44:51;16.30;67.00
736;DHT22;352;48.626;9.238;2023-06-14T00:47:17;16.30;67.50
736;DHT22;352;48.626;9.238;2023-06-14T00:49:45;16.20;66.90
736;DHT22;352;48.626;9.238;2023-06-14T00:52:13;16.20;66.80
736;DHT22;352;48.626;9.238;2023-06-14T00:54:41;16.20;67.00
736;DHT22;352;48.626;9.238;2023-06-14T00:57:08;16.20;67.30
736;DHT22;352;48.626;9.238;2023-06-14T00:59:40;16.10;67.50
736;DHT22;352;48.626;9.238;2023-06-14T01:02:08;16.20;67.30
736;DHT22;352;48.626;9.238;2023-06-14T01:04:35;16.10;67.70
736;DHT22;352;48.626;9.238;2023-06-14T01:07:07;16.10;67.50
736;DHT22;352;48.626;9.238;2023-06-14T01:09:48;15.90;67.50
736;DHT22;352;48.626;9.238;2023-06-14T01:12:24;15.80;67.80
736;DHT22;352;48.626;9.238;2023-06-14T01:14:51;15.80;69.00
736;DHT22;352;48.626;9.238;2023-06-14T01:17:19;15.70;69.70
736;DHT22;352;48.626;9.238;2023-06-14T01:19:47;15.70;70.00
736;DHT22;352;48.626;9.238;2023-06-14T01:22:14;15.70;69.50
736;DHT22;352;48.626;9.238;2023-06-14T01:24:42;15.60;69.70
736;DHT22;352;48.626;9.238;2023-06-14T01:27:11;15.60;70.60
736;DHT22;352;48.626;9.238;2023-06-14T01:29:39;15.60;70.20
736;DHT22;352;48.626;9.238;2023-06-14T01:32:11;15.50;70.90
736;DHT22;352;48.626;9.238;2023-06-14T01:34:38;15.50;71.60
736;DHT22;352;48.626;9.238;2023-06-14T01:37:05;15.50;71.30
736;DHT22;352;48.626;9.238;2023-06-14T01:39:33;15.50;71.70
736;DHT22;352;48.626;9.238;2023-06-14T01:42:02;15.50;71.30
736;DHT22;352;48.626;9.238;2023-06-14T01:44:29;15.40;71.60
736;DHT22;352;48.626;9.238;2023-06-14T01:46:57;15.40;71.90
736;DHT22;352;48.626;9.238;2023-06-14T01:49:23;15.40;72.10
736;DHT22;352;48.626;9.238;2023-06-14T01:51:50;15.30;71.50
736;DHT22;352;48.626;9.238;2023-06-14T01:54:17;15.30;72.00
736;DHT22;352;48.626;9.238;2023-06-14T01:56:43;15.20;72.80
736;DHT22;352;48.626;9.238;2023-06-14T01:59:11;15.20;72.70
736;DHT22;352;48.626;9.238;2023-06-14T02:01:38;15.20;73.10
736;DHT22;352;48.626;9.238;2023-06-14T02:04:06;15.20;74.00
736;DHT22;352;48.626;9.238;2023-06-14T02:06:32;15.10;73.30
736;DHT22;352;48.626;9.238;2023-06-14T02:09:00;15.10;73.50
736;DHT22;352;48.626;9.238;2023-06-14T02:11:27;15.10;74.30
736;DHT22;352;48.626;9.238;2023-06-14T02:13:54;15.10;74.50
736;DHT22;352;48.626;9.238;2023-06-14T02:16:22;15.00;74.60
736;DHT22;352;48.626;9.238;2023-06-14T02:18:50;15.00;75.70
736;DHT22;352;48.626;9.238;2023-06-14T02:21:16;14.90;75.70
736;DHT22;352;48.626;9.238;2023-06-14T02:23:43;14.90;74.80
736;DHT22;352;48.626;9.238;2023-06-14T02:26:10;14.90;75.10
736;DHT22;352;48.626;9.238;2023-06-14T02:28:37;14.90;75.30
736;DHT22;352;48.626;9.238;2023-06-14T02:31:03;14.80;75.40
736;DHT22;352;48.626;9.238;2023-06-14T02:33:31;14.80;76.10
736;DHT22;352;48.626;9.238;2023-06-14T02:35:58;14.80;75.20
736;DHT22;352;48.626;9.238;2023-06-14T02:38:25;14.70;75.80
736;DHT22;352;48.626;9.238;2023-06-14T02:40:51;14.70;76.70
736;DHT22;352;48.626;9.238;2023-06-14T02:43:18;14.60;77.00
736;DHT22;352;48.626;9.238;2023-06-14T02:45:45;14.60;77.10
736;DHT22;352;48.626;9.238;2023-06-14T02:48:12;14.60;77.50
736;DHT22;352;48.626;9.238;2023-06-14T02:50:40;14.50;77.80
736;DHT22;352;48.626;9.238;2023-06-14T02:53:07;14.50;78.50
736;DHT22;352;48.626;9.238;2023-06-14T02:55:33;14.50;78.60
736;DHT22;352;48.626;9.238;2023-06-14T02:58:04;14.40;78.30
736;DHT22;352;48.626;9.238;2023-06-14T03:00:31;14.40;78.10
736;DHT22;352;48.626;9.238;2023-06-14T03:02:57;14.40;78.00
736;DHT22;352;48.626;9.238;2023-06-14T03:05:27;14.40;78.00
736;DHT22;352;48.626;9.238;2023-06-14T03:07:55;14.30;78.70
736;DHT22;352;48.626;9.238;2023-06-14T03:10:22;14.30;79.10
736;DHT22;352;48.626;9.238;2023-06-14T03:12:49;14.30;79.20
736;DHT22;352;48.626;9.238;2023-06-14T03:15:17;14.30;79.50
736;DHT22;352;48.626;9.238;2023-06-14T03:17:44;14.20;79.80
736;DHT22;352;48.626;9.238;2023-06-14T03:20:11;14.20;79.50
736;DHT22;352;48.626;9.238;2023-06-14T03:22:38;14.20;79.60
736;DHT22;352;48.626;9.238;2023-06-14T03:25:07;14.20;79.70
736;DHT22;352;48.626;9.238;2023-06-14T03:27:34;14.10;79.70
736;DHT22;352;48.626;9.238;2023-06-14T03:30:01;14.10;80.20
736;DHT22;352;48.626;9.238;2023-06-14T03:32:29;14.10;80.10
736;DHT22;352;48.626;9.238;2023-06-14T03:34:58;14.10;80.20
736;DHT22;352;48.626;9.238;2023-06-14T03:37:25;14.10;80.30
736;DHT22;352;48.626;9.238;2023-06-14T03:39:52;14.10;79.80
736;DHT22;352;48.626;9.238;2023-06-14T03:42:20;14.10;80.00
736;DHT22;352;48.626;9.238;2023-06-14T03:44:46;14.10;80.20
736;DHT22;352;48.626;9.238;2023-06-14T03:47:13;14.00;80.70
736;DHT22;352;48.626;9.238;2023-06-14T03:49:40;14.00;81.00
736;DHT22;352;48.626;9.238;2023-06-14T03:52:07;14.00;81.20
736;DHT22;352;48.626;9.238;2023-06-14T03:54:33;14.00;80.80
736;DHT22;352;48.626;9.238;2023-06-14T03:57:00;14.00;81.20
736;DHT22;352;48.626;9.238;2023-06-14T03:59:28;14.00;82.00
736;DHT22;352;48.626;9.238;2023-06-14T04:01:55;13.90;81.70
736;DHT22;352;48.626;9.238;2023-06-14T04:04:22;13.90;81.40
736;DHT22;352;48.626;9.238;2023-06-14T04:06:54;13.80;82.00
736;DHT22;352;48.626;9.238;2023-06-14T04:09:22;13.70;82.50
736;DHT22;352;48.626;9.238;2023-06-14T04:11:50;13.80;84.00
736;DHT22;352;48.626;9.238;2023-06-14T04:14:17;14.00;83.60
736;DHT22;352;48.626;9.238;2023-06-14T04:16:45;14.00;82.70
736;DHT22;352;48.626;9.238;2023-06-14T04:19:12;14.00;83.50
736;DHT22;352;48.626;9.238;2023-06-14T04:21:39;13.90;84.20
736;DHT22;352;48.626;9.238;2023-06-14T04:24:06;14.00;85.00
736;DHT22;352;48.626;9.238;2023-06-14T04:26:32;14.00;84.10
736;DHT22;352;48.626;9.238;2023-06-14T04:28:59;14.00;85.20
736;DHT22;352;48.626;9.238;2023-06-14T04:31:27;14.10;85.70
736;DHT22;352;48.626;9.238;2023-06-14T04:33:56;14.10;86.40
736;DHT22;352;48.626;9.238;2023-06-14T04:36:22;14.10;85.80
736;DHT22;352;48.626;9.238;2023-06-14T04:38:50;14.20;85.40
736;DHT22;352;48.626;9.238;2023-06-14T04:41:20;14.20;85.10
736;DHT22;352;48.626;9.238;2023-06-14T04:43:48;14.20;84.80
736;DHT22;352;48.626;9.238;2023-06-14T04:46:15;14.20;84.20
736;DHT22;352;48.626;9.238;2023-06-14T04:48:42;14.20;84.80
736;DHT22;352;48.626;9.238;2023-06-14T04:51:11;14.30;84.30
736;DHT22;352;48.626;9.238;2023-06-14T04:53:38;14.40;84.70
736;DHT22;352;48.626;9.238;2023-06-14T04:56:05;14.40;84.40
736;DHT22;352;48.626;9.238;2023-06-14T04:58:32;14.50;85.00
736;DHT22;352;48.626;9.238;2023-06-14T05:00:59;14.50;84.90
736;DHT22;352;48.626;9.238;2023-06-14T05:03:27;14.60;84.20
736;DHT22;352;48.626;9.238;2023-06-14T05:05:56;14.70;85.50
736;DHT22;352;48.626;9.238;2023-06-14T05:08:24;14.70;84.40
736;DHT22;352;48.626;9.238;2023-06-14T05:10:51;14.80;84.70
736;DHT22;352;48.626;9.238;2023-06-14T05:13:18;15.00;85.30
736;DHT22;352;48.626;9.238;2023-06-14T05:15:47;15.10;84.50
736;DHT22;352;48.626;9.238;2023-06-14T05:18:14;15.20;84.20
736;DHT22;352;48.626;9.238;2023-06-14T05:20:41;15.40;83.40
736;DHT22;352;48.626;9.238;2023-06-14T05:23:09;15.50;81.30
736;DHT22;352;48.626;9.238;2023-06-14T05:25:42;15.80;82.10
736;DHT22;352;48.626;9.238;2023-06-14T05:28:09;16.10;81.20
736;DHT22;352;48.626;9.238;2023-06-14T05:30:37;16.60;80.20
736;DHT22;352;48.626;9.238;2023-06-14T05:33:04;17.10;78.80
736;DHT22;352;48.626;9.238;2023-06-14T05:35:31;17.60;78.20
736;DHT22;352;48.626;9.238;2023-06-14T05:37:58;18.10;76.60
736;DHT22;352;48.626;9.238;2023-06-14T05:40:24;18.50;73.30
736;DHT22;352;48.626;9.238;2023-06-14T05:42:52;18.90;72.20
736;DHT22;352;48.626;9.238;2023-06-14T05:45:19;19.10;71.60
736;DHT22;352;48.626;9.238;2023-06-14T05:47:46;19.60;70.70
736;DHT22;352;48.626;9.238;2023-06-14T05:50:13;19.90;71.00
736;DHT22;352;48.626;9.238;2023-06-14T05:52:39;20.30;68.00
736;DHT22;352;48.626;9.238;2023-06-14T05:55:07;20.60;68.40
736;DHT22;352;48.626;9.238;2023-06-14T05:57:33;20.90;66.20
736;DHT22;352;48.626;9.238;2023-06-14T06:00:03;21.30;63.20
736;DHT22;352;48.626;9.238;2023-06-14T06:02:35;21.40;61.70
736;DHT22;352;48.626;9.238;2023-06-14T06:05:01;21.60;61.20
736;DHT22;352;48.626;9.238;2023-06-14T06:07:28;21.90;59.30
736;DHT22;352;48.626;9.238;2023-06-14T06:09:55;22.10;58.00
736;DHT22;352;48.626;9.238;2023-06-14T06:12:22;22.30;58.60
736;DHT22;352;48.626;9.238;2023-06-14T06:14:48;22.50;58.10
736;DHT22;352;48.626;9.238;2023-06-14T06:17:16;22.80;57.60
736;DHT22;352;48.626;9.238;2023-06-14T06:19:44;23.20;57.20
736;DHT22;352;48.626;9.238;2023-06-14T06:22:11;23.30;58.10
736;DHT22;352;48.626;9.238;2023-06-14T06:24:37;23.50;56.10
736;DHT22;352;48.626;9.238;2023-06-14T06:27:05;23.60;56.30
736;DHT22;352;48.626;9.238;2023-06-14T06:29:33;23.90;55.80
736;DHT22;352;48.626;9.238;2023-06-14T06:32:00;24.00;55.80
736;DHT22;352;48.626;9.238;2023-06-14T06:34:28;23.90;55.30
736;DHT22;352;48.626;9.238;2023-06-14T06:36:55;23.60;56.40
736;DHT22;352;48.626;9.238;2023-06-14T06:39:22;23.30;57.10
736;DHT22;352;48.626;9.238;2023-06-14T06:41:48;22.80;57.80
736;DHT22;352;48.626;9.238;2023-06-14T06:44:15;22.40;59.70
736;DHT22;352;48.626;9.238;2023-06-14T06:46:43;22.10;59.20
736;DHT22;352;48.626;9.238;2023-06-14T06:49:10;22.00;59.70
736;DHT22;352;48.626;9.238;2023-06-14T06:51:41;22.10;61.30
736;DHT22;352;48.626;9.238;2023-06-14T06:54:08;22.10;61.80
736;DHT22;352;48.626;9.238;2023-06-14T06:56:35;22.30;60.70
736;DHT22;352;48.626;9.238;2023-06-14T06:59:02;22.40;60.90
736;DHT22;352;48.626;9.238;2023-06-14T07:01:29;22.50;59.40
736;DHT22;352;48.626;9.238;2023-06-14T07:03:55;22.70;59.20
736;DHT22;352;48.626;9.238;2023-06-14T07:06:22;22.60;59.90
736;DHT22;352;48.626;9.238;2023-06-14T07:08:53;22.70;59.00
736;DHT22;352;48.626;9.238;2023-06-14T07:11:20;22.70;59.10
736;DHT22;352;48.626;9.238;2023-06-14T07:13:47;23.00;59.10
736;DHT22;352;48.626;9.238;2023-06-14T07:16:13;23.50;59.30
736;DHT22;352;48.626;9.238;2023-06-14T07:18:40;24.00;59.20
736;DHT22;352;48.626;9.238;2023-06-14T07:21:07;24.60;57.20
736;DHT22;352;48.626;9.238;2023-06-14T07:23:34;24.90;56.50
736;DHT22;352;48.626;9.238;2023-06-14T07:26:02;25.40;57.00
736;DHT22;352;48.626;9.238;2023-06-14T07:28:28;25.90;55.10
736;DHT22;352;48.626;9.238;2023-06-14T07:30:55;26.30;53.30
736;DHT22;352;48.626;9.238;2023-06-14T07:33:22;26.40;51.50
736;DHT22;352;48.626;9.238;2023-06-14T07:35:49;26.50;50.90
736;DHT22;352;48.626;9.238;2023-06-14T07:38:17;26.50;51.00
736;DHT22;352;48.626;9.238;2023-06-14T07:40:44;26.90;49.70
736;DHT22;352;48.626;9.238;2023-06-14T07:43:12;27.20;47.80
736;DHT22;352;48.626;9.238;2023-06-14T07:45:39;27.40;48.10
736;DHT22;352;48.626;9.238;2023-06-14T07:48:06;27.70;47.80
736;DHT22;352;48.626;9.238;2023-06-14T07:50:33;27.60;48.20
736;DHT22;352;48.626;9.238;2023-06-14T07:52:59;27.80;48.40
736;DHT22;352;48.626;9.238;2023-06-14T07:55:26;27.80;47.40
736;DHT22;352;48.626;9.238;2023-06-14T07:57:53;28.00;48.20
736;DHT22;352;48.626;9.238;2023-06-14T08:00:21;28.10;47.00
736;DHT22;352;48.626;9.238;2023-06-14T08:02:48;28.20;46.90
736;DHT22;352;48.626;9.238;2023-06-14T08:05:16;28.20;46.90
736;DHT22;352;48.626;9.238;2023-06-14T08:07:42;28.40;48.20
736;DHT22;352;48.626;9.238;2023-06-14T08:10:09;28.60;46.80
736;DHT22;352;48.626;9.238;2023-06-14T08:12:37;28.80;46.80
736;DHT22;352;48.626;9.238;2023-06-14T08:15:04;29.00;47.50
736;DHT22;352;48.626;9.238;2023-06-14T08:17:32;29.20;46.20
736;DHT22;352;48.626;9.238;2023-06-14T08:19:59;29.30;45.90
736;DHT22;352;48.626;9.238;2023-06-14T08:22:26;29.40;45.60
736;DHT22;352;48.626;9.238;2023-06-14T08:24:57;29.50;44.70
736;DHT22;352;48.626;9.238;2023-06-14T08:27:23;29.60;46.30
736;DHT22;352;48.626;9.238;2023-06-14T08:29:50;29.50;44.50
736;DHT22;352;48.626;9.238;2023-06-14T08:32:17;29.70;45.20
736;DHT22;352;48.626;9.238;2023-06-14T08:34:45;29.80;44.60
736;DHT22;352;48.626;9.238;2023-06-14T08:37:11;30.00;44.20
736;DHT22;352;48.626;9.238;2023-06-14T08:39:39;29.90;43.20
736;DHT22;352;48.626;9.238;2023-06-14T08:42:07;29.80;44.00
736;DHT22;352;48.626;9.238;2023-06-14T08:44:36;30.10;46.30
736;DHT22;352;48.626;9.238;2023-06-14T08:47:03;30.60;44.30
736;DHT22;352;48.626;9.238;2023-06-14T08:49:32;30.60;43.00
736;DHT22;352;48.626;9.238;2023-06-14T08:52:01;30.80;43.20
736;DHT22;352;48.626;9.238;2023-06-14T08:54:28;30.80;42.30
736;DHT22;352;48.626;9.238;2023-06-14T08:56:56;30.90;42.90
736;DHT22;352;48.626;9.238;2023-06-14T08:59:25;31.00;42.40
736;DHT22;352;48.626;9.238;2023-06-14T09:01:52;31.30;43.10
736;DHT22;352;48.626;9.238;2023-06-14T09:04:20;31.30;41.70
736;DHT22;352;48.626;9.238;2023-06-14T09:06:47;31.10;42.00
736;DHT22;352;48.626;9.238;2023-06-14T09:09:19;31.00;42.00
736;DHT22;352;48.626;9.238;2023-06-14T09:11:46;31.10;41.10
736;DHT22;352;48.626;9.238;2023-06-14T09:14:13;30.70;42.00
736;DHT22;352;48.626;9.238;2023-06-14T09:16:40;31.00;41.50
736;DHT22;352;48.626;9.238;2023-06-14T09:19:06;31.10;41.60
736;DHT22;352;48.626;9.238;2023-06-14T09:21:34;30.80;40.90
736;DHT22;352;48.626;9.238;2023-06-14T09:24:01;30.80;41.30
736;DHT22;352;48.626;9.238;2023-06-14T09:26:31;31.20;41.90
736;DHT22;352;48.626;9.238;2023-06-14T09:28:58;31.60;41.20
736;DHT22;352;48.626;9.238;2023-06-14T09:31:25;31.70;40.10
736;DHT22;352;48.626;9.238;2023-06-14T09:33:55;31.70;39.90
736;DHT22;352;48.626;9.238;2023-06-14T09:36:23;31.60;39.30
736;DHT22;352;48.626;9.238;2023-06-14T09:38:53;31.80;38.40
736;DHT22;352;48.626;9.238;2023-06-14T09:41:20;31.90;38.60
736;DHT22;352;48.626;9.238;2023-06-14T09:43:49;32.10;39.20
736;DHT22;352;48.626;9.238;2023-06-14T09:46:16;32.60;37.90
736;DHT22;352;48.626;9.238;2023-06-14T09:48:44;32.40;36.90
736;DHT22;352;48.626;9.238;2023-06-14T09:51:13;32.70;39.20
736;DHT22;352;48.626;9.238;2023-06-14T09:53:41;32.90;37.80
736;DHT22;352;48.626;9.238;2023-06-14T09:56:10;33.00;36.50
736;DHT22;352;48.626;9.238;2023-06-14T09:58:39;32.90;35.80
736;DHT22;352;48.626;9.238;2023-06-14T10:01:08;32.70;35.40
736;DHT22;352;48.626;9.238;2023-06-14T10:03:39;32.30;34.90
736;DHT22;352;48.626;9.238;2023-06-14T10:06:08;32.40;36.30
736;DHT22;352;48.626;9.238;2023-06-14T10:08:36;32.60;37.80
736;DHT22;352;48.626;9.238;2023-06-14T10:11:04;32.70;37.60
736;DHT22;352;48.626;9.238;2023-06-14T10:13:32;33.10;37.30
736;DHT22;352;48.626;9.238;2023-06-14T10:16:05;32.90;36.60
736;DHT22;352;48.626;9.238;2023-06-14T10:18:42;33.00;36.20
736;DHT22;352;48.626;9.238;2023-06-14T10:21:18;33.10;35.90
736;DHT22;352;48.626;9.238;2023-06-14T10:23:49;33.20;37.70
736;DHT22;352;48.626;9.238;2023-06-14T10:26:21;33.50;37.20
736;DHT22;352;48.626;9.238;2023-06-14T10:28:59;33.80;37.00
736;DHT22;352;48.626;9.238;2023-06-14T10:31:43;33.80;36.20
736;DHT22;352;48.626;9.238;2023-06-14T10:34:11;33.50;35.80
736;DHT22;352;48.626;9.238;2023-06-14T10:36:42;32.90;35.40
736;DHT22;352;48.626;9.238;2023-06-14T10:39:14;33.20;36.50
736;DHT22;352;48.626;9.238;2023-06-14T10:41:42;33.50;35.50
736;DHT22;352;48.626;9.238;2023-06-14T10:44:38;33.20;34.10
736;DHT22;352;48.626;9.238;2023-06-14T10:47:10;33.20;35.20
736;DHT22;352;48.626;9.238;2023-06-14T10:49:41;33.30;34.90
736;DHT22;352;48.626;9.238;2023-06-14T10:52:10;33.20;35.40
736;DHT22;352;48.626;9.238;2023-06-14T10:55:04;33.10;34.80
736;DHT22;352;48.626;9.238;2023-06-14T10:57:35;32.70;35.40
736;DHT22;352;48.626;9.238;2023-06-14T11:00:03;33.10;36.90
736;DHT22;352;48.626;9.238;2023-06-14T11:05:48;33.30;35.40
736;DHT22;352;48.626;9.238;2023-06-14T11:11:10;34.00;35.90
736;DHT22;352;48.626;9.238;2023-06-14T11:13:38;33.90;34.50
736;DHT22;352;48.626;9.238;2023-06-14T11:16:10;33.80;36.00
736;DHT22;352;48.626;9.238;2023-06-14T11:18:37;33.80;35.70
736;DHT22;352;48.626;9.238;2023-06-14T11:21:06;33.20;34.90
736;DHT22;352;48.626;9.238;2023-06-14T11:23:34;32.60;35.70
736;DHT22;352;48.626;9.238;2023-06-14T11:26:00;31.90;35.90
736;DHT22;352;48.626;9.238;2023-06-14T11:28:36;31.20;37.10
736;DHT22;352;48.626;9.238;2023-06-14T11:31:03;30.80;37.60
736;DHT22;352;48.626;9.238;2023-06-14T11:33:30;30.70;37.90
736;DHT22;352;48.626;9.238;2023-06-14T11:35:57;30.90;38.70
736;DHT22;352;48.626;9.238;2023-06-14T11:38:26;31.00;36.90
736;DHT22;352;48.626;9.238;2023-06-14T11:40:53;30.80;36.10
736;DHT22;352;48.626;9.238;2023-06-14T11:43:19;31.00;38.50
736;DHT22;352;48.626;9.238;2023-06-14T11:45:48;31.20;38.40
736;DHT22;352;48.626;9.238;2023-06-14T11:48:14;31.40;39.70
736;DHT22;352;48.626;9.238;2023-06-14T11:50:41;31.60;37.40
736;DHT22;352;48.626;9.238;2023-06-14T11:53:08;31.80;36.80
736;DHT22;352;48.626;9.238;2023-06-14T11:55:37;31.70;36.90
736;DHT22;352;48.626;9.238;2023-06-14T11:58:06;31.00;37.00
736;DHT22;352;48.626;9.238;2023-06-14T12:00:35;30.40;37.90
736;DHT22;352;48.626;9.238;2023-06-14T12:03:02;30.10;38.60
736;DHT22;352;48.626;9.238;2023-06-14T12:05:30;29.90;38.50
736;DHT22;352;48.626;9.238;2023-06-14T12:07:58;29.50;38.10
736;DHT22;352;48.626;9.238;2023-06-14T12:10:26;29.30;39.40
736;DHT22;352;48.626;9.238;2023-06-14T12:12:57;29.10;39.20
736;DHT22;352;48.626;9.238;2023-06-14T12:15:24;29.10;39.10
736;DHT22;352;48.626;9.238;2023-06-14T12:17:50;29.10;40.30
736;DHT22;352;48.626;9.238;2023-06-14T12:20:18;29.10;39.20
736;DHT22;352;48.626;9.238;2023-06-14T12:22:50;29.20;41.00
736;DHT22;352;48.626;9.238;2023-06-14T12:25:25;29.50;40.40
736;DHT22;352;48.626;9.238;2023-06-14T12:27:54;29.60;40.00
736;DHT22;352;48.626;9.238;2023-06-14T12:30:21;29.80;40.70
736;DHT22;352;48.626;9.238;2023-06-14T12:32:48;29.90;40.30
736;DHT22;352;48.626;9.238;2023-06-14T12:35:17;29.90;40.40
736;DHT22;352;48.626;9.238;2023-06-14T12:37:44;29.80;38.90
736;DHT22;352;48.626;9.238;2023-06-14T12:40:12;29.80;40.40
736;DHT22;352;48.626;9.238;2023-06-14T12:42:38;29.50;39.30
736;DHT22;352;48.626;9.238;2023-06-14T12:45:08;29.30;40.40
736;DHT22;352;48.626;9.238;2023-06-14T12:47:35;29.20;40.60
736;DHT22;352;48.626;9.238;2023-06-14T12:50:02;28.90;41.20
736;DHT22;352;48.626;9.238;2023-06-14T12:52:28;28.80;41.30
736;DHT22;352;48.626;9.238;2023-06-14T12:54:55;28.80;41.30
736;DHT22;352;48.626;9.238;2023-06-14T12:57:23;28.90;41.60
736;DHT22;352;48.626;9.238;2023-06-14T12:59:49;29.00;41.00
736;DHT22;352;48.626;9.238;2023-06-14T13:02:19;28.50;39.40
736;DHT22;352;48.626;9.238;2023-06-14T13:04:47;28.30;40.50
736;DHT22;352;48.626;9.238;2023-06-14T13:07:14;28.10;41.50
736;DHT22;352;48.626;9.238;2023-06-14T13:09:41;28.10;41.90
736;DHT22;352;48.626;9.238;2023-06-14T13:12:09;27.90;40.60
736;DHT22;352;48.626;9.238;2023-06-14T13:14:38;28.00;41.70
736;DHT22;352;48.626;9.238;2023-06-14T13:17:06;28.00;41.30
736;DHT22;352;48.626;9.238;2023-06-14T13:19:34;28.00;42.80
736;DHT22;352;48.626;9.238;2023-06-14T13:22:01;28.10;41.00
736;DHT22;352;48.626;9.238;2023-06-14T13:24:28;28.10;42.10
736;DHT22;352;48.626;9.238;2023-06-14T13:26:56;27.80;41.90
736;DHT22;352;48.626;9.238;2023-06-14T13:29:23;27.70;41.70
736;DHT22;352;48.626;9.238;2023-06-14T13:31:49;27.50;41.80
736;DHT22;352;48.626;9.238;2023-06-14T13:34:16;27.30;42.50
736;DHT22;352;48.626;9.238;2023-06-14T13:36:45;27.20;43.10
736;DHT22;352;48.626;9.238;2023-06-14T13:39:12;27.20;42.40
736;DHT22;352;48.626;9.238;2023-06-14T13:41:39;27.20;42.60
736;DHT22;352;48.626;9.238;2023-06-14T13:44:06;27.20;42.50
736;DHT22;352;48.626;9.238;2023-06-14T13:46:32;27.20;42.50
736;DHT22;352;48.626;9.238;2023-06-14T13:48:59;27.20;42.50
736;DHT22;352;48.626;9.238;2023-06-14T13:51:27;27.10;43.00
736;DHT22;352;48.626;9.238;2023-06-14T13:53:55;27.10;42.10
736;DHT22;352;48.626;9.238;2023-06-14T13:56:22;27.20;42.60
736;DHT22;352;48.626;9.238;2023-06-14T13:58:49;27.10;43.00
736;DHT22;352;48.626;9.238;2023-06-14T14:01:16;27.10;42.60
736;DHT22;352;48.626;9.238;2023-06-14T14:03:45;27.10;43.00
736;DHT22;352;48.626;9.238;2023-06-14T14:06:11;27.20;43.80
736;DHT22;352;48.626;9.238;2023-06-14T14:08:38;27.30;43.70
736;DHT22;352;48.626;9.238;2023-06-14T14:11:07;27.30;43.20
736;DHT22;352;48.626;9.238;2023-06-14T14:13:34;27.20;42.50
736;DHT22;352;48.626;9.238;2023-06-14T14:16:02;27.10;43.30
736;DHT22;352;48.626;9.238;2023-06-14T14:18:28;26.90;43.70
736;DHT22;352;48.626;9.238;2023-06-14T14:20:56;26.80;43.80
736;DHT22;352;48.626;9.238;2023-06-14T14:23:24;26.70;43.20
736;DHT22;352;48.626;9.238;2023-06-14T14:25:51;26.60;43.40
736;DHT22;352;48.626;9.238;2023-06-14T14:28:19;26.30;42.80
736;DHT22;352;48.626;9.238;2023-06-14T14:30:46;26.30;43.60
736;DHT22;352;48.626;9.238;2023-06-14T14:33:13;26.20;43.90
736;DHT22;352;48.626;9.238;2023-06-14T14:35:41;26.20;44.20
736;DHT22;352;48.626;9.238;2023-06-14T14:38:08;26.10;44.40
736;DHT22;352;48.626;9.238;2023-06-14T14:40:35;26.10;43.70
736;DHT22;352;48.626;9.238;2023-06-14T14:43:02;26.10;44.60
736;DHT22;352;48.626;9.238;2023-06-14T14:45:30;26.00;44.30
736;DHT22;352;48.626;9.238;2023-06-14T14:47:57;26.00;45.30
736;DHT22;352;48.626;9.238;2023-06-14T14:50:25;26.00;44.20
736;DHT22;352;48.626;9.238;2023-06-14T14:52:52;26.00;44.70
736;DHT22;352;48.626;9.238;2023-06-14T14:55:19;26.10;45.90
736;DHT22;352;48.626;9.238;2023-06-14T14:57:46;26.30;45.70
736;DHT22;352;48.626;9.238;2023-06-14T15:00:13;26.30;44.80
736;DHT22;352;48.626;9.238;2023-06-14T15:02:41;26.40;45.00
736;DHT22;352;48.626;9.238;2023-06-14T15:05:08;26.50;45.60
736;DHT22;352;48.626;9.238;2023-06-14T15:07:35;26.40;45.70
736;DHT22;352;48.626;9.238;2023-06-14T15:10:02;26.40;45.10
736;DHT22;352;48.626;9.238;2023-06-14T15:12:30;26.40;45.70
736;DHT22;352;48.626;9.238;2023-06-14T15:14:56;26.40;45.50
736;DHT22;352;48.626;9.238;2023-06-14T15:17:25;26.30;45.60
736;DHT22;352;48.626;9.238;2023-06-14T15:19:53;26.30;46.70
736;DHT22;352;48.626;9.238;2023-06-14T15:22:20;26.20;46.00
736;DHT22;352;48.626;9.238;2023-06-14T15:24:47;26.10;45.70
736;DHT22;352;48.626;9.238;2023-06-14T15:27:14;26.20;46.30
736;DHT22;352;48.626;9.238;2023-06-14T15:29:42;26.20;46.10
736;DHT22;352;48.626;9.238;2023-06-14T15:32:09;26.20;45.00
736;DHT22;352;48.626;9.238;2023-06-14T15:34:36;26.10;45.00
736;DHT22;352;48.626;9.238;2023-06-14T15:37:06;26.10;45.40
736;DHT22;352;48.626;9.238;2023-06-14T15:39:33;26.20;46.50
736;DHT22;352;48.626;9.238;2023-06-14T15:42:00;26.20;46.00
736;DHT22;352;48.626;9.238;2023-06-14T15:44:26;26.20;45.80
736;DHT22;352;48.626;9.238;2023-06-14T15:46:53;26.10;44.90
736;DHT22;352;48.626;9.238;2023-06-14T15:49:20;26.10;44.80
736;DHT22;352;48.626;9.238;2023-06-14T15:51:47;26.00;44.80
736;DHT22;352;48.626;9.238;2023-06-14T15:54:15;25.90;44.70
736;DHT22;352;48.626;9.238;2023-06-14T15:56:42;25.90;44.90
736;DHT22;352;48.626;9.238;2023-06-14T15:59:08;25.90;46.00
736;DHT22;352;48.626;9.238;2023-06-14T16:01:35;25.80;47.20
736;DHT22;352;48.626;9.238;2023-06-14T16:04:02;25.40;65.00
736;DHT22;352;48.626;9.238;2023-06-14T16:06:29;25.10;67.70
736;DHT22;352;48.626;9.238;2023-06-14T16:08:56;24.80;56.70
736;DHT22;352;48.626;9.238;2023-06-14T16:11:24;24.70;62.30
736;DHT22;352;48.626;9.238;2023-06-14T16:13:51;24.70;56.30
736;DHT22;352;48.626;9.238;2023-06-14T16:16:18;24.70;59.30
736;DHT22;352;48.626;9.238;2023-06-14T16:18:46;24.60;53.60
736;DHT22;352;48.626;9.238;2023-06-14T16:21:12;24.70;53.30
736;DHT22;352;48.626;9.238;2023-06-14T16:23:39;24.70;53.20
736;DHT22;352;48.626;9.238;2023-06-14T16:26:10;24.70;61.80
736;DHT22;352;48.626;9.238;2023-06-14T16:28:39;24.50;60.50
736;DHT22;352;48.626;9.238;2023-06-14T16:31:08;24.40;54.10
736;DHT22;352;48.626;9.238;2023-06-14T16:33:35;24.30;54.00
736;DHT22;352;48.626;9.238;2023-06-14T16:36:02;24.30;55.80
736;DHT22;352;48.626;9.238;2023-06-14T16:38:29;24.30;54.80
736;DHT22;352;48.626;9.238;2023-06-14T16:40:56;24.30;57.80
736;DHT22;352;48.626;9.238;2023-06-14T16:43:22;24.30;53.20